sensor_id;sensor_type;location;lat;lon;timestamp;pressure;altitude;pressure_sealevel;temperature;humidity
4022;BME280;2025;48.260;16.432;2022-07-19T00:02:28;100382.03;;;15.82;100.00
4022;BME280;2025;48.260;16.432;2022-07-19T00:04:55;100371.47;;;15.83;100.00
4022;BME280;2025;48.260;16.432;2022-07-19T00:07:22;100375.88;;;15.81;100.00
4022;BME280;2025;48.260;16.432;2022-07-19T00:09:50;100368.84;;;15.79;100.00
4022;BME280;2025;48.260;16.432;2022-07-19T00:12:17;100369.75;;;15.73;100.00
4022;BME280;2025;48.260;16.432;2022-07-19T00:14:44;100374.16;;;15.71;100.00
4022;BME280;2025;48.260;16.432;2022-07-19T00:17:11;100373.28;;;15.64;100.00
4022;BME280;2025;48.260;16.432;2022-07-19T00:19:38;100375.94;;;15.63;100.00
4022;BME280;2025;48.260;16.432;2022-07-19T00:22:05;100377.69;;;15.64;100.00
4022;BME280;2025;48.260;16.432;2022-07-19T00:24:32;100375.03;;;15.64;100.00
4022;BME280;2025;48.260;16.432;2022-07-19T00:27:00;100374.16;;;15.62;100.00
4022;BME280;2025;48.260;16.432;2022-07-19T00:29:27;100372.38;;;15.58;100.00
4022;BME280;2025;48.260;16.432;2022-07-19T00:31:54;100370.63;;;15.60;100.00
4022;BME280;2025;48.260;16.432;2022-07-19T00:34:21;100372.38;;;15.58;100.00
4022;BME280;2025;48.260;16.432;2022-07-19T00:36:48;100372.34;;;15.56;100.00
4022;BME280;2025;48.260;16.432;2022-07-19T00:39:15;100360.03;;;15.52;100.00
4022;BME280;2025;48.260;16.432;2022-07-19T00:41:43;100372.38;;;15.49;100.00
4022;BME280;2025;48.260;16.432;2022-07-19T00:44:11;100377.66;;;15.47;100.00
4022;BME280;2025;48.260;16.432;2022-07-19T00:46:39;100373.25;;;15.41;100.00
4022;BME280;2025;48.260;16.432;2022-07-19T00:49:06;100382.94;;;15.39;100.00
4022;BME280;2025;48.260;16.432;2022-07-19T00:51:35;100374.16;;;15.37;100.00
4022;BME280;2025;48.260;16.432;2022-07-19T00:54:02;100377.66;;;15.36;100.00
4022;BME280;2025;48.260;16.432;2022-07-19T00:56:31;100374.16;;;15.33;100.00
4022;BME280;2025;48.260;16.432;2022-07-19T00:59:00;100374.16;;;15.30;100.00
4022;BME280;2025;48.260;16.432;2022-07-19T01:01:30;100372.38;;;15.29;100.00
4022;BME280;2025;48.260;16.432;2022-07-19T01:03:57;100369.75;;;15.32;100.00
4022;BME280;2025;48.260;16.432;2022-07-19T01:06:24;100368.88;;;15.31;100.00
4022;BME280;2025;48.260;16.432;2022-07-19T01:08:52;100375.03;;;15.32;100.00
4022;BME280;2025;48.260;16.432;2022-07-19T01:11:19;100369.75;;;15.27;100.00
4022;BME280;2025;48.260;16.432;2022-07-19T01:13:47;100375.91;;;15.23;100.00
4022;BME280;2025;48.260;16.432;2022-07-19T01:16:14;100370.63;;;15.17;100.00
4022;BME280;2025;48.260;16.432;2022-07-19T01:18:43;100370.63;;;15.20;100.00
4022;BME280;2025;48.260;16.432;2022-07-19T01:21:19;100364.47;;;15.21;100.00
4022;BME280;2025;48.260;16.432;2022-07-19T01:23:46;100370.63;;;15.20;100.00
4022;BME280;2025;48.260;16.432;2022-07-19T01:26:13;100370.63;;;15.23;100.00
4022;BME280;2025;48.260;16.432;2022-07-19T01:28:40;100370.63;;;15.22;100.00
4022;BME280;2025;48.260;16.432;2022-07-19T01:31:08;100365.34;;;15.19;100.00
4022;BME280;2025;48.260;16.432;2022-07-19T01:33:39;100363.59;;;15.16;100.00
4022;BME280;2025;48.260;16.432;2022-07-19T01:36:06;100360.97;;;15.15;100.00
4022;BME280;2025;48.260;16.432;2022-07-19T01:38:35;100364.47;;;15.14;100.00
4022;BME280;2025;48.260;16.432;2022-07-19T01:41:03;100364.47;;;15.11;100.00
4022;BME280;2025;48.260;16.432;2022-07-19T01:43:30;100363.59;;;15.04;100.00
4022;BME280;2025;48.260;16.432;2022-07-19T01:45:57;100362.72;;;14.97;100.00
4022;BME280;2025;48.260;16.432;2022-07-19T01:48:24;100365.34;;;14.94;100.00
4022;BME280;2025;48.260;16.432;2022-07-19T01:50:51;100371.50;;;14.92;100.00
4022;BME280;2025;48.260;16.432;2022-07-19T01:53:18;100368.00;;;14.93;100.00
4022;BME280;2025;48.260;16.432;2022-07-19T01:55:47;100357.44;;;14.90;100.00
4022;BME280;2025;48.260;16.432;2022-07-19T01:58:14;100368.00;;;14.88;100.00
4022;BME280;2025;48.260;16.432;2022-07-19T02:00:41;100370.63;;;14.84;100.00
4022;BME280;2025;48.260;16.432;2022-07-19T02:03:08;100372.38;;;14.82;100.00
4022;BME280;2025;48.260;16.432;2022-07-19T02:05:35;100371.50;;;14.80;100.00
4022;BME280;2025;48.260;16.432;2022-07-19T02:08:02;100367.97;;;14.77;100.00
4022;BME280;2025;48.260;16.432;2022-07-19T02:10:29;100370.63;;;14.71;100.00
4022;BME280;2025;48.260;16.432;2022-07-19T02:12:58;100372.38;;;14.72;100.00
4022;BME280;2025;48.260;16.432;2022-07-19T02:15:25;100367.97;;;14.70;100.00
4022;BME280;2025;48.260;16.432;2022-07-19T02:17:52;100369.72;;;14.66;100.00
4022;BME280;2025;48.260;16.432;2022-07-19T02:20:19;100362.69;;;14.64;100.00
4022;BME280;2025;48.260;16.432;2022-07-19T02:22:46;100367.09;;;14.63;100.00
4022;BME280;2025;48.260;16.432;2022-07-19T02:25:13;100360.94;;;14.61;100.00
4022;BME280;2025;48.260;16.432;2022-07-19T02:27:41;100359.16;;;14.63;100.00
4022;BME280;2025;48.260;16.432;2022-07-19T02:30:10;100360.94;;;14.63;100.00
4022;BME280;2025;48.260;16.432;2022-07-19T02:32:38;100371.47;;;14.64;100.00
4022;BME280;2025;48.260;16.432;2022-07-19T02:35:06;100372.34;;;14.63;100.00
4022;BME280;2025;48.260;16.432;2022-07-19T02:37:33;100365.31;;;14.61;100.00
4022;BME280;2025;48.260;16.432;2022-07-19T02:40:01;100370.59;;;14.58;100.00
4022;BME280;2025;48.260;16.432;2022-07-19T02:42:28;100368.81;;;14.54;100.00
4022;BME280;2025;48.260;16.432;2022-07-19T02:44:55;100367.94;;;14.47;100.00
4022;BME280;2025;48.260;16.432;2022-07-19T02:47:23;100375.84;;;14.47;100.00
4022;BME280;2025;48.260;16.432;2022-07-19T02:49:50;100372.31;;;14.45;100.00
4022;BME280;2025;48.260;16.432;2022-07-19T02:52:17;100368.78;;;14.43;100.00
4022;BME280;2025;48.260;16.432;2022-07-19T02:54:44;100384.63;;;14.46;100.00
4022;BME280;2025;48.260;16.432;2022-07-19T02:57:11;100380.22;;;14.47;100.00
4022;BME280;2025;48.260;16.432;2022-07-19T02:59:38;100384.63;;;14.46;100.00
4022;BME280;2025;48.260;16.432;2022-07-19T03:02:05;100391.66;;;14.47;100.00
4022;BME280;2025;48.260;16.432;2022-07-19T03:04:33;100381.09;;;14.44;100.00
4022;BME280;2025;48.260;16.432;2022-07-19T03:07:00;100384.63;;;14.43;100.00
4022;BME280;2025;48.260;16.432;2022-07-19T03:09:27;100383.69;;;14.41;100.00
4022;BME280;2025;48.260;16.432;2022-07-19T03:11:54;100394.25;;;14.38;100.00
4022;BME280;2025;48.260;16.432;2022-07-19T03:14:21;100399.50;;;14.35;100.00
4022;BME280;2025;48.260;16.432;2022-07-19T03:16:48;100396.84;;;14.35;100.00
4022;BME280;2025;48.260;16.432;2022-07-19T03:19:14;100401.25;;;14.34;100.00
4022;BME280;2025;48.260;16.432;2022-07-19T03:21:43;100402.13;;;14.33;100.00
4022;BME280;2025;48.260;16.432;2022-07-19T03:24:10;100403.88;;;14.33;100.00
4022;BME280;2025;48.260;16.432;2022-07-19T03:26:37;100406.53;;;14.36;100.00
4022;BME280;2025;48.260;16.432;2022-07-19T03:29:04;100403.91;;;14.37;100.00
4022;BME280;2025;48.260;16.432;2022-07-19T03:31:31;100410.94;;;14.40;100.00
4022;BME280;2025;48.260;16.432;2022-07-19T03:33:57;100417.13;;;14.42;100.00
4022;BME280;2025;48.260;16.432;2022-07-19T03:36:24;100419.78;;;14.42;100.00
4022;BME280;2025;48.260;16.432;2022-07-19T03:38:53;100415.38;;;14.42;100.00
4022;BME280;2025;48.260;16.432;2022-07-19T03:41:20;100403.97;;;14.47;100.00
4022;BME280;2025;48.260;16.432;2022-07-19T03:43:47;100409.25;;;14.48;100.00
4022;BME280;2025;48.260;16.432;2022-07-19T03:46:14;100415.38;;;14.46;100.00
4022;BME280;2025;48.260;16.432;2022-07-19T03:48:41;100408.38;;;14.49;100.00
4022;BME280;2025;48.260;16.432;2022-07-19T03:51:07;100407.50;;;14.53;100.00
4022;BME280;2025;48.260;16.432;2022-07-19T03:53:34;100405.75;;;14.55;100.00
4022;BME280;2025;48.260;16.432;2022-07-19T03:56:03;100405.75;;;14.60;100.00
4022;BME280;2025;48.260;16.432;2022-07-19T03:58:30;100411.94;;;14.65;100.00
4022;BME280;2025;48.260;16.432;2022-07-19T04:00:57;100410.19;;;14.73;100.00
4022;BME280;2025;48.260;16.432;2022-07-19T04:03:24;100415.47;;;14.73;100.00
4022;BME280;2025;48.260;16.432;2022-07-19T04:05:51;100425.16;;;14.82;100.00
4022;BME280;2025;48.260;16.432;2022-07-19T04:08:18;100422.53;;;14.91;100.00
4022;BME280;2025;48.260;16.432;2022-07-19T04:10:45;100433.97;;;14.97;100.00
4022;BME280;2025;48.260;16.432;2022-07-19T04:13:13;100431.34;;;15.03;100.00
4022;BME280;2025;48.260;16.432;2022-07-19T04:15:40;100427.84;;;15.14;100.00
4022;BME280;2025;48.260;16.432;2022-07-19T04:18:07;100423.44;;;15.23;100.00
4022;BME280;2025;48.260;16.432;2022-07-19T04:20:34;100434.88;;;15.34;100.00
4022;BME280;2025;48.260;16.432;2022-07-19T04:23:01;100424.31;;;15.42;100.00
4022;BME280;2025;48.260;16.432;2022-07-19T04:25:28;100437.50;;;15.56;100.00
4022;BME280;2025;48.260;16.432;2022-07-19T04:27:55;100435.78;;;15.71;100.00
4022;BME280;2025;48.260;16.432;2022-07-19T04:30:23;100432.19;;;16.03;100.00
4022;BME280;2025;48.260;16.432;2022-07-19T04:32:50;100440.06;;;16.20;100.00
4022;BME280;2025;48.260;16.432;2022-07-19T04:35:17;100443.56;;;16.31;100.00
4022;BME280;2025;48.260;16.432;2022-07-19T04:37:44;100440.84;;;16.46;100.00
4022;BME280;2025;48.260;16.432;2022-07-19T04:40:12;100446.94;;;16.62;100.00
4022;BME280;2025;48.260;16.432;2022-07-19T04:42:39;100442.47;;;16.81;100.00
4022;BME280;2025;48.260;16.432;2022-07-19T04:45:06;100448.47;;;17.09;100.00
4022;BME280;2025;48.260;16.432;2022-07-19T04:47:35;100454.44;;;17.33;100.00
4022;BME280;2025;48.260;16.432;2022-07-19T04:50:02;100446.34;;;17.58;100.00
4022;BME280;2025;48.260;16.432;2022-07-19T04:52:29;100443.53;;;17.78;100.00
4022;BME280;2025;48.260;16.432;2022-07-19T04:54:56;100443.31;;;17.98;100.00
4022;BME280;2025;48.260;16.432;2022-07-19T04:57:23;100438.75;;;18.10;100.00
4022;BME280;2025;48.260;16.432;2022-07-19T04:59:50;100441.28;;;18.21;100.00
4022;BME280;2025;48.260;16.432;2022-07-19T05:02:17;100446.50;;;18.28;100.00
4022;BME280;2025;48.260;16.432;2022-07-19T05:04:45;100441.97;;;18.37;100.00
4022;BME280;2025;48.260;16.432;2022-07-19T05:07:12;100433.00;;;18.48;100.00
4022;BME280;2025;48.260;16.432;2022-07-19T05:09:39;100435.47;;;18.64;100.00
4022;BME280;2025;48.260;16.432;2022-07-19T05:12:06;100429.97;;;18.77;100.00
4022;BME280;2025;48.260;16.432;2022-07-19T05:14:34;100440.47;;;18.85;100.00
4022;BME280;2025;48.260;16.432;2022-07-19T05:17:02;100430.50;;;19.01;100.00
4022;BME280;2025;48.260;16.432;2022-07-19T05:19:29;100432.22;;;19.08;100.00
4022;BME280;2025;48.260;16.432;2022-07-19T05:21:57;100432.06;;;19.17;100.00
4022;BME280;2025;48.260;16.432;2022-07-19T05:24:24;100432.00;;;19.21;100.00
4022;BME280;2025;48.260;16.432;2022-07-19T05:26:51;100430.06;;;19.31;100.00
4022;BME280;2025;48.260;16.432;2022-07-19T05:29:18;100434.34;;;19.40;100.00
4022;BME280;2025;48.260;16.432;2022-07-19T05:31:45;100435.91;;;19.51;100.00
4022;BME280;2025;48.260;16.432;2022-07-19T05:34:12;100428.75;;;19.58;100.00
4022;BME280;2025;48.260;16.432;2022-07-19T05:36:39;100433.97;;;19.64;100.00
4022;BME280;2025;48.260;16.432;2022-07-19T05:39:07;100424.06;;;19.72;100.00
4022;BME280;2025;48.260;16.432;2022-07-19T05:41:34;100429.19;;;19.83;100.00
4022;BME280;2025;48.260;16.432;2022-07-19T05:44:01;100429.09;;;19.88;100.00
4022;BME280;2025;48.260;16.432;2022-07-19T05:46:28;100429.66;;;20.05;100.00
4022;BME280;2025;48.260;16.432;2022-07-19T05:48:55;100431.16;;;20.18;100.00
4022;BME280;2025;48.260;16.432;2022-07-19T05:51:22;100430.00;;;20.31;100.00
4022;BME280;2025;48.260;16.432;2022-07-19T05:53:49;100428.81;;;20.47;100.00
4022;BME280;2025;48.260;16.432;2022-07-19T05:56:18;100429.53;;;20.56;100.00
4022;BME280;2025;48.260;16.432;2022-07-19T05:58:45;100433.66;;;20.69;100.00
4022;BME280;2025;48.260;16.432;2022-07-19T06:01:13;100433.31;;;20.86;100.00
4022;BME280;2025;48.260;16.432;2022-07-19T06:03:49;100428.59;;;20.98;100.00
4022;BME280;2025;48.260;16.432;2022-07-19T06:06:16;100427.47;;;21.08;100.00
4022;BME280;2025;48.260;16.432;2022-07-19T06:08:43;100435.16;;;21.22;100.00
4022;BME280;2025;48.260;16.432;2022-07-19T06:11:10;100431.16;;;21.40;100.00
4022;BME280;2025;48.260;16.432;2022-07-19T06:13:39;100437.19;;;21.48;100.00
4022;BME280;2025;48.260;16.432;2022-07-19T06:16:06;100423.69;;;21.54;100.00
4022;BME280;2025;48.260;16.432;2022-07-19T06:18:34;100427.16;;;21.58;100.00
4022;BME280;2025;48.260;16.432;2022-07-19T06:21:01;100419.53;;;21.76;100.00
4022;BME280;2025;48.260;16.432;2022-07-19T06:23:28;100421.97;;;21.86;100.00
4022;BME280;2025;48.260;16.432;2022-07-19T06:25:55;100427.91;;;21.95;100.00
4022;BME280;2025;48.260;16.432;2022-07-19T06:28:23;100425.03;;;22.04;100.00
4022;BME280;2025;48.260;16.432;2022-07-19T06:30:52;100428.28;;;22.16;100.00
4022;BME280;2025;48.260;16.432;2022-07-19T06:33:19;100427.88;;;22.29;100.00
4022;BME280;2025;48.260;16.432;2022-07-19T06:35:46;100424.06;;;22.38;100.00
4022;BME280;2025;48.260;16.432;2022-07-19T06:38:13;100430.09;;;22.45;100.00
4022;BME280;2025;48.260;16.432;2022-07-19T06:40:40;100430.84;;;22.50;100.00
4022;BME280;2025;48.260;16.432;2022-07-19T06:43:08;100428.66;;;22.64;100.00
4022;BME280;2025;48.260;16.432;2022-07-19T06:45:35;100423.78;;;22.80;100.00
4022;BME280;2025;48.260;16.432;2022-07-19T06:48:04;100419.09;;;22.86;100.00
4022;BME280;2025;48.260;16.432;2022-07-19T06:50:31;100424.16;;;22.95;100.00
4022;BME280;2025;48.260;16.432;2022-07-19T06:52:58;100420.28;;;23.06;100.00
4022;BME280;2025;48.260;16.432;2022-07-19T06:55:25;100424.81;;;23.30;100.00
4022;BME280;2025;48.260;16.432;2022-07-19T06:57:52;100431.72;;;23.37;100.00
4022;BME280;2025;48.260;16.432;2022-07-19T07:00:19;100434.25;;;23.42;100.00
4022;BME280;2025;48.260;16.432;2022-07-19T07:02:46;100431.34;;;23.48;100.00
4022;BME280;2025;48.260;16.432;2022-07-19T07:05:14;100436.44;;;23.57;100.00
4022;BME280;2025;48.260;16.432;2022-07-19T07:07:41;100428.19;;;23.63;100.00
4022;BME280;2025;48.260;16.432;2022-07-19T07:10:09;100427.09;;;23.68;93.65
4022;BME280;2025;48.260;16.432;2022-07-19T07:12:36;100426.94;;;23.73;94.73
4022;BME280;2025;48.260;16.432;2022-07-19T07:15:04;100429.25;;;23.84;100.00
4022;BME280;2025;48.260;16.432;2022-07-19T07:17:31;100432.03;;;24.06;97.35
4022;BME280;2025;48.260;16.432;2022-07-19T07:19:58;100435.75;;;24.28;100.00
4022;BME280;2025;48.260;16.432;2022-07-19T07:22:27;100428.94;;;24.43;97.31
4022;BME280;2025;48.260;16.432;2022-07-19T07:24:54;100427.41;;;24.59;90.48
4022;BME280;2025;48.260;16.432;2022-07-19T07:27:21;100421.66;;;24.70;83.20
4022;BME280;2025;48.260;16.432;2022-07-19T07:29:48;100416.09;;;24.74;87.55
4022;BME280;2025;48.260;16.432;2022-07-19T07:32:15;100425.19;;;24.70;96.04
4022;BME280;2025;48.260;16.432;2022-07-19T07:34:42;100429.16;;;24.83;94.98
4022;BME280;2025;48.260;16.432;2022-07-19T07:37:09;100436.59;;;24.99;92.30
4022;BME280;2025;48.260;16.432;2022-07-19T07:39:37;100419.63;;;25.42;79.27
4022;BME280;2025;48.260;16.432;2022-07-19T07:42:05;100424.19;;;25.40;82.01
4022;BME280;2025;48.260;16.432;2022-07-19T07:44:32;100420.94;;;25.53;83.87
4022;BME280;2025;48.260;16.432;2022-07-19T07:46:59;100418.75;;;25.41;82.61
4022;BME280;2025;48.260;16.432;2022-07-19T07:49:26;100428.16;;;25.51;83.98
4022;BME280;2025;48.260;16.432;2022-07-19T07:51:53;100428.28;;;25.48;87.73
4022;BME280;2025;48.260;16.432;2022-07-19T07:54:20;100429.72;;;25.57;87.89
4022;BME280;2025;48.260;16.432;2022-07-19T07:56:48;100430.47;;;25.61;77.12
4022;BME280;2025;48.260;16.432;2022-07-19T07:59:15;100426.28;;;25.53;79.42
4022;BME280;2025;48.260;16.432;2022-07-19T08:01:42;100425.13;;;25.81;85.41
4022;BME280;2025;48.260;16.432;2022-07-19T08:04:10;100423.25;;;25.83;88.51
4022;BME280;2025;48.260;16.432;2022-07-19T08:06:36;100410.72;;;26.04;80.57
4022;BME280;2025;48.260;16.432;2022-07-19T08:09:04;100417.47;;;25.92;75.31
4022;BME280;2025;48.260;16.432;2022-07-19T08:11:32;100409.28;;;25.95;76.20
4022;BME280;2025;48.260;16.432;2022-07-19T08:14:00;100412.66;;;26.00;79.59
4022;BME280;2025;48.260;16.432;2022-07-19T08:16:28;100417.91;;;26.03;71.53
4022;BME280;2025;48.260;16.432;2022-07-19T08:18:55;100417.72;;;26.08;78.73
4022;BME280;2025;48.260;16.432;2022-07-19T08:21:22;100403.94;;;26.15;75.51
4022;BME280;2025;48.260;16.432;2022-07-19T08:23:48;100415.19;;;26.24;72.15
4022;BME280;2025;48.260;16.432;2022-07-19T08:26:15;100408.59;;;26.31;69.38
4022;BME280;2025;48.260;16.432;2022-07-19T08:28:42;100404.50;;;26.42;67.10
4022;BME280;2025;48.260;16.432;2022-07-19T08:31:13;100407.78;;;26.49;64.99
4022;BME280;2025;48.260;16.432;2022-07-19T08:33:40;100409.97;;;26.60;67.29
4022;BME280;2025;48.260;16.432;2022-07-19T08:36:08;100413.44;;;26.80;68.68
4022;BME280;2025;48.260;16.432;2022-07-19T08:38:37;100395.28;;;26.85;70.92
4022;BME280;2025;48.260;16.432;2022-07-19T08:41:05;100404.00;;;26.91;67.54
4022;BME280;2025;48.260;16.432;2022-07-19T08:43:32;100398.41;;;26.95;68.35
4022;BME280;2025;48.260;16.432;2022-07-19T08:46:00;100401.16;;;26.94;59.35
4022;BME280;2025;48.260;16.432;2022-07-19T08:48:30;100410.59;;;27.21;64.76
4022;BME280;2025;48.260;16.432;2022-07-19T08:50:59;100404.25;;;27.22;61.49
4022;BME280;2025;48.260;16.432;2022-07-19T08:53:30;100403.34;;;27.40;60.42
4022;BME280;2025;48.260;16.432;2022-07-19T08:55:58;100400.53;;;27.61;50.28
4022;BME280;2025;48.260;16.432;2022-07-19T08:58:45;100398.03;;;27.75;53.64
4022;BME280;2025;48.260;16.432;2022-07-19T09:01:12;100400.47;;;27.79;52.91
4022;BME280;2025;48.260;16.432;2022-07-19T09:04:08;100401.75;;;27.90;48.83
4022;BME280;2025;48.260;16.432;2022-07-19T09:06:41;100400.09;;;27.87;44.29
4022;BME280;2025;48.260;16.432;2022-07-19T09:09:09;100392.31;;;27.81;47.06
4022;BME280;2025;48.260;16.432;2022-07-19T09:11:45;100394.59;;;28.06;48.93
4022;BME280;2025;48.260;16.432;2022-07-19T09:14:19;100394.38;;;27.93;50.74
4022;BME280;2025;48.260;16.432;2022-07-19T09:16:58;100393.09;;;28.00;50.42
4022;BME280;2025;48.260;16.432;2022-07-19T09:19:31;100389.81;;;28.11;57.78
4022;BME280;2025;48.260;16.432;2022-07-19T09:22:00;100393.72;;;28.23;45.26
4022;BME280;2025;48.260;16.432;2022-07-19T09:24:32;100396.63;;;28.18;44.96
4022;BME280;2025;48.260;16.432;2022-07-19T09:27:02;100382.59;;;28.29;45.33
4022;BME280;2025;48.260;16.432;2022-07-19T09:29:31;100381.31;;;28.36;46.98
4022;BME280;2025;48.260;16.432;2022-07-19T09:32:00;100386.81;;;28.50;43.78
4022;BME280;2025;48.260;16.432;2022-07-19T09:34:30;100378.56;;;28.53;42.80
4022;BME280;2025;48.260;16.432;2022-07-19T09:37:17;100373.59;;;28.77;41.60
4022;BME280;2025;48.260;16.432;2022-07-19T09:39:46;100378.31;;;28.89;37.48
4022;BME280;2025;48.260;16.432;2022-07-19T09:42:15;100368.41;;;28.90;39.11
4022;BME280;2025;48.260;16.432;2022-07-19T09:44:43;100366.75;;;29.03;40.09
4022;BME280;2025;48.260;16.432;2022-07-19T09:47:11;100367.94;;;29.13;36.50
4022;BME280;2025;48.260;16.432;2022-07-19T09:49:40;100373.66;;;29.23;36.21
4022;BME280;2025;48.260;16.432;2022-07-19T09:52:08;100360.94;;;29.25;39.06
4022;BME280;2025;48.260;16.432;2022-07-19T09:54:38;100360.66;;;29.45;40.82
4022;BME280;2025;48.260;16.432;2022-07-19T09:57:07;100365.47;;;29.56;40.48
4022;BME280;2025;48.260;16.432;2022-07-19T09:59:37;100355.56;;;29.71;37.83
4022;BME280;2025;48.260;16.432;2022-07-19T10:02:05;100352.44;;;29.62;35.89
4022;BME280;2025;48.260;16.432;2022-07-19T10:04:32;100354.41;;;29.75;35.91
4022;BME280;2025;48.260;16.432;2022-07-19T10:07:02;100355.38;;;29.74;40.51
4022;BME280;2025;48.260;16.432;2022-07-19T10:09:29;100349.22;;;29.86;39.43
4022;BME280;2025;48.260;16.432;2022-07-19T10:11:56;100345.06;;;29.94;39.58
4022;BME280;2025;48.260;16.432;2022-07-19T10:14:23;100337.81;;;29.81;37.71
4022;BME280;2025;48.260;16.432;2022-07-19T10:17:04;100336.78;;;29.97;38.20
4022;BME280;2025;48.260;16.432;2022-07-19T10:19:38;100340.44;;;29.96;36.42
4022;BME280;2025;48.260;16.432;2022-07-19T10:22:09;100334.56;;;30.32;39.69
4022;BME280;2025;48.260;16.432;2022-07-19T10:24:46;100340.47;;;30.25;36.30
4022;BME280;2025;48.260;16.432;2022-07-19T10:27:14;100338.88;;;30.63;38.58
4022;BME280;2025;48.260;16.432;2022-07-19T10:29:42;100329.19;;;30.74;36.25
4022;BME280;2025;48.260;16.432;2022-07-19T10:32:11;100324.91;;;31.25;39.33
4022;BME280;2025;48.260;16.432;2022-07-19T10:34:39;100324.69;;;31.28;35.56
4022;BME280;2025;48.260;16.432;2022-07-19T10:37:08;100324.50;;;30.90;32.57
4022;BME280;2025;48.260;16.432;2022-07-19T10:39:35;100322.88;;;30.87;34.89
4022;BME280;2025;48.260;16.432;2022-07-19T10:42:08;100321.50;;;30.94;33.52
4022;BME280;2025;48.260;16.432;2022-07-19T10:45:09;100316.78;;;31.11;33.87
4022;BME280;2025;48.260;16.432;2022-07-19T10:47:58;100315.66;;;31.67;40.88
4022;BME280;2025;48.260;16.432;2022-07-19T10:50:55;100316.28;;;31.58;31.83
4022;BME280;2025;48.260;16.432;2022-07-19T10:53:57;100314.81;;;31.92;32.45
4022;BME280;2025;48.260;16.432;2022-07-19T10:56:33;100320.00;;;32.08;34.13
4022;BME280;2025;48.260;16.432;2022-07-19T10:59:02;100315.25;;;31.73;31.63
4022;BME280;2025;48.260;16.432;2022-07-19T11:01:30;100316.56;;;31.80;32.46
4022;BME280;2025;48.260;16.432;2022-07-19T11:04:23;100306.09;;;31.49;32.56
4022;BME280;2025;48.260;16.432;2022-07-19T11:06:50;100320.44;;;32.14;33.51
4022;BME280;2025;48.260;16.432;2022-07-19T11:09:19;100319.13;;;32.07;31.99
4022;BME280;2025;48.260;16.432;2022-07-19T11:11:46;100327.28;;;31.95;31.81
4022;BME280;2025;48.260;16.432;2022-07-19T11:14:13;100320.56;;;31.87;30.20
4022;BME280;2025;48.260;16.432;2022-07-19T11:16:42;100318.34;;;31.54;30.31
4022;BME280;2025;48.260;16.432;2022-07-19T11:19:09;100309.63;;;31.76;30.67
4022;BME280;2025;48.260;16.432;2022-07-19T11:21:37;100308.75;;;32.01;32.75
4022;BME280;2025;48.260;16.432;2022-07-19T11:24:07;100312.19;;;32.29;31.12
4022;BME280;2025;48.260;16.432;2022-07-19T11:26:37;100301.53;;;32.38;35.57
4022;BME280;2025;48.260;16.432;2022-07-19T11:29:04;100293.78;;;31.96;32.72
4022;BME280;2025;48.260;16.432;2022-07-19T11:31:32;100298.53;;;31.67;30.27
4022;BME280;2025;48.260;16.432;2022-07-19T11:33:59;100302.75;;;32.09;32.04
4022;BME280;2025;48.260;16.432;2022-07-19T11:36:27;100295.50;;;32.09;31.05
4022;BME280;2025;48.260;16.432;2022-07-19T11:38:56;100289.97;;;32.11;32.95
4022;BME280;2025;48.260;16.432;2022-07-19T11:41:25;100285.47;;;32.48;30.97
4022;BME280;2025;48.260;16.432;2022-07-19T11:43:55;100287.19;;;32.49;32.94
4022;BME280;2025;48.260;16.432;2022-07-19T11:46:24;100283.09;;;32.43;31.53
4022;BME280;2025;48.260;16.432;2022-07-19T11:48:55;100274.19;;;32.41;31.71
4022;BME280;2025;48.260;16.432;2022-07-19T11:51:23;100281.28;;;32.31;32.32
4022;BME280;2025;48.260;16.432;2022-07-19T11:53:51;100272.50;;;32.88;31.76
4022;BME280;2025;48.260;16.432;2022-07-19T11:56:21;100268.56;;;32.68;30.43
4022;BME280;2025;48.260;16.432;2022-07-19T11:58:48;100271.31;;;32.56;31.22
4022;BME280;2025;48.260;16.432;2022-07-19T12:01:23;100267.97;;;32.76;30.20
4022;BME280;2025;48.260;16.432;2022-07-19T12:03:54;100263.38;;;32.89;31.33
4022;BME280;2025;48.260;16.432;2022-07-19T12:06:35;100265.34;;;32.87;30.30
4022;BME280;2025;48.260;16.432;2022-07-19T12:09:04;100255.38;;;32.14;32.07
4022;BME280;2025;48.260;16.432;2022-07-19T12:11:38;100264.28;;;32.04;31.97
4022;BME280;2025;48.260;16.432;2022-07-19T12:14:16;100258.28;;;32.61;34.58
4022;BME280;2025;48.260;16.432;2022-07-19T12:16:45;100251.50;;;33.38;33.85
4022;BME280;2025;48.260;16.432;2022-07-19T12:19:12;100249.56;;;33.51;30.00
4022;BME280;2025;48.260;16.432;2022-07-19T12:21:43;100252.03;;;33.54;30.99
4022;BME280;2025;48.260;16.432;2022-07-19T12:24:17;100249.66;;;33.38;29.67
4022;BME280;2025;48.260;16.432;2022-07-19T12:26:53;100254.06;;;32.57;31.59
4022;BME280;2025;48.260;16.432;2022-07-19T12:29:26;100248.78;;;33.03;39.70
4022;BME280;2025;48.260;16.432;2022-07-19T12:31:56;100242.97;;;33.31;42.08
4022;BME280;2025;48.260;16.432;2022-07-19T12:34:24;100247.91;;;33.02;36.83
4022;BME280;2025;48.260;16.432;2022-07-19T12:36:52;100251.44;;;33.62;34.20
4022;BME280;2025;48.260;16.432;2022-07-19T12:39:27;100240.44;;;33.74;33.10
4022;BME280;2025;48.260;16.432;2022-07-19T12:42:05;100242.16;;;33.75;34.17
4022;BME280;2025;48.260;16.432;2022-07-19T12:44:34;100241.72;;;33.82;36.92
4022;BME280;2025;48.260;16.432;2022-07-19T12:47:02;100241.72;;;33.82;38.33
4022;BME280;2025;48.260;16.432;2022-07-19T12:49:43;100246.16;;;33.94;33.70
4022;BME280;2025;48.260;16.432;2022-07-19T12:52:10;100242.31;;;33.85;30.48
4022;BME280;2025;48.260;16.432;2022-07-19T12:54:37;100233.09;;;32.95;53.06
4022;BME280;2025;48.260;16.432;2022-07-19T12:57:05;100233.69;;;32.51;37.14
4022;BME280;2025;48.260;16.432;2022-07-19T12:59:32;100226.75;;;32.71;36.57
4022;BME280;2025;48.260;16.432;2022-07-19T13:02:11;100227.06;;;32.79;40.26
4022;BME280;2025;48.260;16.432;2022-07-19T13:04:39;100215.63;;;32.87;34.53